Terminal Aerodrome Forecast
Issued by NWS

Home | Current Version | Previous Version | Text Only | Print | Product List | Glossary On
Versions: 1 2 3 4 5 6 7 8 9 10 11 12 13 14 15 16 17 18 19 20 21 22 23 24 25 26 27 28 29 30 31 32 33 34 35 36 37 38 39 40 41 42 43 44 45 46 47 48 49 50
000
FTPA31 PHFO 162320
TAFHOG
TAF
PHOG 162320Z 1700/1724 05018G28KT P6SM FEW045 WS005/10010KT
     FM170500 05012KT P6SM FEW045
     FM171900 05017G28KT P6SM FEW045
     AMD LTD TO VIS AND WIND 1709/1716=

USA.gov is the U.S. government's official web portal to all federal, state and local government web resources and services.